Time,TemperatureF,DewpointF,PressureIn,WindDirection,WindDirectionDegrees,WindSpeedMPH,WindSpeedGustMPH,Humidity,HourlyPrecipIn,Conditions,Clouds,dailyrainin,SoftwareType,DateUTC
2013-07-16 00:08:00,67.3,34.0,29.80,SW,224,11.0,23.0,29,0.00,,,0.00,weatherlink.com 1.10,2013-07-16 07:08:00,
2013-07-16 00:23:00,66.9,36.0,29.80,WSW,249,14.0,26.0,32,0.00,,,0.00,weatherlink.com 1.10,2013-07-16 07:23:00,
2013-07-16 00:38:00,66.7,34.0,29.80,WNW,286,19.0,25.0,30,0.00,,,0.00,weatherlink.com 1.10,2013-07-16 07:38:00,
2013-07-16 00:53:00,66.6,32.0,29.79,West,259,12.0,30.0,28,0.00,,,0.00,weatherlink.com 1.10,2013-07-16 07:53:00,
2013-07-16 01:08:00,66.7,32.0,29.79,WSW,250,17.0,31.0,27,0.00,,,0.00,weatherlink.com 1.10,2013-07-16 08:08:00,
2013-07-16 01:23:00,66.5,30.0,29.79,WSW,257,19.0,27.0,26,0.00,,,0.00,weatherlink.com 1.10,2013-07-16 08:23:00,
2013-07-16 01:38:00,66.4,29.0,29.79,WSW,257,20.0,29.0,25,0.00,,,0.00,weatherlink.com 1.10,2013-07-16 08:38:00,
2013-07-16 01:53:00,66.0,29.0,29.79,West,263,19.0,28.0,25,0.00,,,0.00,weatherlink.com 1.10,2013-07-16 08:53:00,
2013-07-16 02:08:00,66.5,26.0,29.80,West,271,17.0,29.0,22,0.00,,,0.00,weatherlink.com 1.10,2013-07-16 09:08:00,
2013-07-16 02:24:00,66.3,24.0,29.80,SW,232,16.0,25.0,20,0.00,,,0.00,weatherlink.com 1.10,2013-07-16 09:24:00,
2013-07-16 02:38:00,66.2,24.0,29.80,WSW,248,15.0,24.0,20,0.00,,,0.00,weatherlink.com 1.10,2013-07-16 09:38:00,
2013-07-16 02:53:00,66.3,23.0,29.79,West,260,13.0,26.0,19,0.00,,,0.00,weatherlink.com 1.10,2013-07-16 09:53:00,
2013-07-16 03:08:00,66.2,21.0,29.79,West,281,21.0,27.0,18,0.00,,,0.00,weatherlink.com 1.10,2013-07-16 10:08:00,
2013-07-16 03:23:00,67.1,18.0,29.79,WSW,257,15.0,29.0,15,0.00,,,0.00,weatherlink.com 1.10,2013-07-16 10:23:00,
2013-07-16 03:38:00,67.4,20.0,29.79,West,263,15.0,29.0,16,0.00,,,0.00,weatherlink.com 1.10,2013-07-16 10:38:00,
2013-07-16 03:53:00,67.1,19.0,29.79,WSW,250,22.0,31.0,16,0.00,,,0.00,weatherlink.com 1.10,2013-07-16 10:53:00,
2013-07-16 04:08:00,67.7,17.0,29.80,WSW,244,9.0,27.0,14,0.00,,,0.00,weatherlink.com 1.10,2013-07-16 11:08:00,
2013-07-16 04:23:00,66.8,22.0,29.81,WNW,283,11.0,23.0,18,0.00,,,0.00,weatherlink.com 1.10,2013-07-16 11:23:00,
2013-07-16 04:38:00,66.1,23.0,29.81,West,270,12.0,25.0,19,0.00,,,0.00,weatherlink.com 1.10,2013-07-16 11:38:00,
2013-07-16 04:53:00,66.5,23.0,29.82,West,264,9.0,22.0,19,0.00,,,0.00,weatherlink.com 1.10,2013-07-16 11:53:00,
2013-07-16 05:08:00,65.8,25.0,29.82,West,276,15.0,20.0,21,0.00,,,0.00,weatherlink.com 1.10,2013-07-16 12:08:00,
2013-07-16 05:24:00,65.6,23.0,29.83,West,281,3.0,16.0,20,0.00,,,0.00,weatherlink.com 1.10,2013-07-16 12:24:00,
2013-07-16 05:39:00,64.8,21.0,29.84,West,273,5.0,7.0,19,0.00,,,0.00,weatherlink.com 1.10,2013-07-16 12:39:00,
2013-07-16 05:54:00,64.7,19.0,29.85,SW,219,1.0,9.0,17,0.00,,,0.00,weatherlink.com 1.10,2013-07-16 12:54:00,
2013-07-16 06:09:00,64.3,21.0,29.85,NW,304,2.0,12.0,19,0.00,,,0.00,weatherlink.com 1.10,2013-07-16 13:09:00,
2013-07-16 06:24:00,63.9,19.0,29.86,West,271,1.0,7.0,18,0.00,,,0.00,weatherlink.com 1.10,2013-07-16 13:24:00,
2013-07-16 06:39:00,65.5,18.0,29.86,WNW,302,6.0,8.0,16,0.00,,,0.00,weatherlink.com 1.10,2013-07-16 13:39:00,
2013-07-16 06:55:00,67.1,18.0,29.87,WSW,250,5.0,13.0,15,0.00,,,0.00,weatherlink.com 1.10,2013-07-16 13:55:00,
2013-07-16 07:09:00,68.4,17.0,29.88,WSW,251,7.0,12.0,14,0.00,,,0.00,weatherlink.com 1.10,2013-07-16 14:09:00,
2013-07-16 07:24:00,69.6,17.0,29.88,West,259,11.0,14.0,13,0.00,,,0.00,weatherlink.com 1.10,2013-07-16 14:24:00,
2013-07-16 07:39:00,70.7,16.0,29.88,WSW,258,10.0,18.0,12,0.00,,,0.00,weatherlink.com 1.10,2013-07-16 14:39:00,
2013-07-16 07:54:00,71.2,16.0,29.88,SW,217,13.0,18.0,12,0.00,,,0.00,weatherlink.com 1.10,2013-07-16 14:54:00,
2013-07-16 08:09:00,71.5,14.0,29.89,WSW,250,19.0,23.0,11,0.00,,,0.00,weatherlink.com 1.10,2013-07-16 15:09:00,
2013-07-16 08:24:00,71.5,14.0,29.89,SW,233,14.0,24.0,11,0.00,,,0.00,weatherlink.com 1.10,2013-07-16 15:24:00,
2013-07-16 08:39:00,72.4,15.0,29.89,SW,231,18.0,28.0,11,0.00,,,0.00,weatherlink.com 1.10,2013-07-16 15:39:00,
2013-07-16 08:54:00,72.8,17.0,29.89,West,260,16.0,25.0,12,0.00,,,0.00,weatherlink.com 1.10,2013-07-16 15:54:00,
2013-07-16 09:09:00,74.0,12.0,29.89,WNW,286,14.0,27.0,9,0.00,,,0.00,weatherlink.com 1.10,2013-07-16 16:09:00,
2013-07-16 09:24:00,74.8,9.0,29.89,SW,235,14.0,25.0,8,0.00,,,0.00,weatherlink.com 1.10,2013-07-16 16:24:00,
2013-07-16 09:39:00,75.6,10.0,29.89,West,259,13.0,24.0,8,0.00,,,0.00,weatherlink.com 1.10,2013-07-16 16:39:00,
2013-07-16 09:54:00,76.7,11.0,29.89,West,260,9.0,21.0,8,0.00,,,0.00,weatherlink.com 1.10,2013-07-16 16:54:00,
2013-07-16 10:09:00,77.6,9.0,29.89,WSW,252,8.0,23.0,7,0.00,,,0.00,weatherlink.com 1.10,2013-07-16 17:09:00,
2013-07-16 10:24:00,78.0,9.0,29.90,West,269,11.0,20.0,7,0.00,,,0.00,weatherlink.com 1.10,2013-07-16 17:24:00,
2013-07-16 10:39:00,79.0,6.0,29.90,WNW,293,8.0,24.0,6,0.00,,,0.00,weatherlink.com 1.10,2013-07-16 17:39:00,
2013-07-16 10:54:00,80.0,10.0,29.91,West,275,9.0,18.0,7,0.00,,,0.00,weatherlink.com 1.10,2013-07-16 17:54:00,
2013-07-16 11:10:00,80.7,14.0,29.91,West,264,4.0,15.0,8,0.00,,,0.00,weatherlink.com 1.10,2013-07-16 18:10:00,
2013-07-16 11:26:00,81.3,8.0,29.91,West,281,4.0,15.0,6,0.00,,,0.00,weatherlink.com 1.10,2013-07-16 18:26:00,
2013-07-16 11:40:00,81.8,8.0,29.91,West,271,10.0,16.0,6,0.00,,,0.00,weatherlink.com 1.10,2013-07-16 18:40:00,
2013-07-16 11:55:00,80.9,8.0,29.91,West,261,23.0,23.0,6,0.00,,,0.00,weatherlink.com 1.10,2013-07-16 18:55:00,
2013-07-16 12:10:00,81.3,8.0,29.91,SW,232,20.0,26.0,6,0.00,,,0.00,weatherlink.com 1.10,2013-07-16 19:10:00,
2013-07-16 12:25:00,81.4,11.0,29.91,West,272,10.0,22.0,7,0.00,,,0.00,weatherlink.com 1.10,2013-07-16 19:25:00,
2013-07-16 12:40:00,82.3,9.0,29.91,WNW,287,12.0,24.0,6,0.00,,,0.00,weatherlink.com 1.10,2013-07-16 19:40:00,
2013-07-16 13:10:00,82.8,16.0,29.91,WNW,283,13.0,25.0,8,0.00,,,0.00,weatherlink.com 1.10,2013-07-16 20:10:00,
2013-07-16 13:25:00,83.0,18.0,29.91,West,279,14.0,23.0,9,0.00,,,0.00,weatherlink.com 1.10,2013-07-16 20:25:00,
2013-07-16 13:40:00,82.4,15.0,29.91,West,264,15.0,27.0,8,0.00,,,0.00,weatherlink.com 1.10,2013-07-16 20:40:00,
2013-07-16 13:55:00,83.0,21.0,29.91,West,278,10.0,24.0,10,0.00,,,0.00,weatherlink.com 1.10,2013-07-16 20:55:00,
2013-07-16 14:10:00,83.7,19.0,29.91,WSW,256,11.0,21.0,9,0.00,,,0.00,weatherlink.com 1.10,2013-07-16 21:10:00,
2013-07-16 14:25:00,84.1,19.0,29.91,WSW,252,7.0,23.0,9,0.00,,,0.00,weatherlink.com 1.10,2013-07-16 21:25:00,
2013-07-16 14:40:00,84.3,24.0,29.91,WNW,297,22.0,23.0,11,0.00,,,0.00,weatherlink.com 1.10,2013-07-16 21:40:00,
2013-07-16 14:55:00,84.3,26.0,29.91,West,278,17.0,21.0,12,0.00,,,0.00,weatherlink.com 1.10,2013-07-16 21:55:00,
2013-07-16 15:10:00,84.1,26.0,29.91,WSW,257,8.0,21.0,12,0.00,,,0.00,weatherlink.com 1.10,2013-07-16 22:10:00,
2013-07-16 15:25:00,83.2,29.0,29.91,WSW,255,18.0,24.0,14,0.00,,,0.00,weatherlink.com 1.10,2013-07-16 22:25:00,
2013-07-16 15:40:00,83.8,28.0,29.91,West,259,16.0,21.0,13,0.00,,,0.00,weatherlink.com 1.10,2013-07-16 22:40:00,
2013-07-16 15:55:00,83.4,28.0,29.91,WSW,257,12.0,26.0,13,0.00,,,0.00,weatherlink.com 1.10,2013-07-16 22:55:00,
2013-07-16 16:10:00,83.5,31.0,29.90,West,273,11.0,26.0,15,0.00,,,0.00,weatherlink.com 1.10,2013-07-16 23:10:00,
2013-07-16 16:25:00,83.3,29.0,29.90,West,279,11.0,21.0,14,0.00,,,0.00,weatherlink.com 1.10,2013-07-16 23:25:00,
2013-07-16 16:40:00,82.9,29.0,29.90,WSW,255,13.0,26.0,14,0.00,,,0.00,weatherlink.com 1.10,2013-07-16 23:40:00,
2013-07-16 16:55:00,82.8,31.0,29.89,WSW,253,18.0,21.0,15,0.00,,,0.00,weatherlink.com 1.10,2013-07-16 23:55:00,
2013-07-16 17:10:00,82.3,32.0,29.90,WSW,257,14.0,23.0,16,0.00,,,0.00,weatherlink.com 1.10,2013-07-17 00:10:00,
2013-07-16 17:25:00,81.6,31.0,29.89,West,268,20.0,27.0,16,0.00,,,0.00,weatherlink.com 1.10,2013-07-17 00:25:00,
2013-07-16 17:40:00,81.1,32.0,29.89,West,268,14.0,28.0,17,0.00,,,0.00,weatherlink.com 1.10,2013-07-17 00:40:00,
2013-07-16 17:55:00,80.3,33.0,29.89,West,268,13.0,24.0,18,0.00,,,0.00,weatherlink.com 1.10,2013-07-17 00:55:00,
2013-07-16 18:10:00,79.7,34.0,29.89,WNW,289,12.0,24.0,19,0.00,,,0.00,weatherlink.com 1.10,2013-07-17 01:10:00,
2013-07-16 18:25:00,79.1,32.0,29.89,West,268,17.0,24.0,18,0.00,,,0.00,weatherlink.com 1.10,2013-07-17 01:25:00,
2013-07-16 18:40:00,78.3,33.0,29.89,WNW,284,19.0,22.0,19,0.00,,,0.00,weatherlink.com 1.10,2013-07-17 01:40:00,
2013-07-16 18:55:00,77.4,33.0,29.90,West,281,15.0,26.0,20,0.00,,,0.00,weatherlink.com 1.10,2013-07-17 01:55:00,
2013-07-16 19:10:00,76.8,33.0,29.90,West,269,17.0,21.0,20,0.00,,,0.00,weatherlink.com 1.10,2013-07-17 02:10:00,
2013-07-16 19:25:00,75.7,33.0,29.91,WSW,254,16.0,23.0,21,0.00,,,0.00,weatherlink.com 1.10,2013-07-17 02:25:00,
2013-07-16 19:40:00,74.6,33.0,29.91,West,262,16.0,22.0,22,0.00,,,0.00,weatherlink.com 1.10,2013-07-17 02:40:00,
2013-07-16 19:55:00,73.2,33.0,29.92,West,273,16.0,28.0,23,0.00,,,0.00,weatherlink.com 1.10,2013-07-17 02:55:00,
2013-07-16 20:10:00,72.1,33.0,29.92,West,269,12.0,27.0,24,0.00,,,0.00,weatherlink.com 1.10,2013-07-17 03:10:00,
2013-07-16 20:25:00,71.2,34.0,29.92,West,269,15.0,26.0,25,0.00,,,0.00,weatherlink.com 1.10,2013-07-17 03:25:00,
2013-07-16 20:40:00,70.5,33.0,29.93,WSW,250,13.0,22.0,25,0.00,,,0.00,weatherlink.com 1.10,2013-07-17 03:40:00,
2013-07-16 20:55:00,70.2,33.0,29.93,West,261,16.0,24.0,25,0.00,,,0.00,weatherlink.com 1.10,2013-07-17 03:55:00,
2013-07-16 21:10:00,70.1,33.0,29.94,West,264,19.0,27.0,25,0.00,,,0.00,weatherlink.com 1.10,2013-07-17 04:10:00,
2013-07-16 21:25:00,69.8,31.0,29.95,West,263,17.0,23.0,24,0.00,,,0.00,weatherlink.com 1.10,2013-07-17 04:25:00,
2013-07-16 21:40:00,69.7,31.0,29.96,West,267,9.0,19.0,24,0.00,,,0.00,weatherlink.com 1.10,2013-07-17 04:40:00,
2013-07-16 21:55:00,69.5,29.0,29.96,WSW,255,10.0,17.0,22,0.00,,,0.00,weatherlink.com 1.10,2013-07-17 04:55:00,
2013-07-16 22:10:00,69.4,27.0,29.96,WSW,252,10.0,17.0,20,0.00,,,0.00,weatherlink.com 1.10,2013-07-17 05:10:00,
2013-07-16 22:25:00,70.1,25.0,29.97,West,271,10.0,17.0,18,0.00,,,0.00,weatherlink.com 1.10,2013-07-17 05:25:00,
2013-07-16 22:40:00,70.4,22.0,29.97,West,271,10.0,18.0,16,0.00,,,0.00,weatherlink.com 1.10,2013-07-17 05:40:00,
2013-07-16 22:55:00,70.4,20.0,29.97,WSW,241,11.0,18.0,15,0.00,,,0.00,weatherlink.com 1.10,2013-07-17 05:55:00,
2013-07-16 23:10:00,70.6,17.0,29.97,West,259,10.0,17.0,13,0.00,,,0.00,weatherlink.com 1.10,2013-07-17 06:10:00,
2013-07-16 23:25:00,70.3,19.0,29.97,West,277,12.0,17.0,14,0.00,,,0.00,weatherlink.com 1.10,2013-07-17 06:25:00,
2013-07-16 23:41:00,70.3,19.0,29.97,WSW,238,9.0,17.0,14,0.00,,,0.00,weatherlink.com 1.10,2013-07-17 06:41:00,
2013-07-16 23:56:00,70.1,25.0,29.97,West,273,9.0,17.0,18,0.00,,,0.00,weatherlink.com 1.10,2013-07-17 06:56:00,